LFRU/MXN METAR and TAF weather

Enter ICAO airport designator
Station Type Date Time Source
LFRU METAR 2019/02/20 17:00 UTC NOAA

LFRU 201700Z AUTO 18007KT 150V220 CAVOK 12/06 Q1020


Station Type Date Time Source
LFRU Decoded METAR 2019/02/20 17:00 UTC NOAA

Morlaix / Ploujean, France (LFRU) 48-36N 003-49W
Feb 20, 2019 - 12:00 PM EST / 2019.02.20 1700 UTC
Wind: from the S (180 degrees) at 8 MPH (7 KT) (direction variable):0
Visibility: greater than 7 mile(s):0
Temperature: 53 F (12 C)
Dew Point: 42 F (6 C)
Relative Humidity: 66%
Pressure (altimeter): 30.12 in. Hg (1020 hPa)
ob: LFRU 201700Z AUTO 18007KT 150V220 CAVOK 12/06 Q1020
cycle: 17

Station Type Date Time Source
LFRU TAF UTC NOAA

Error!


Example: see airport list